Time;durP1;ratioP1;P1;durP2;ratioP2;P2;SDS_P1;SDS_P2;PMS_P1;PMS_P2;Temp;Humidity;BMP_temperature;BMP_pressure;BME280_temperature;BME280_humidity;BME280_pressure;Samples;Min_cycle;Max_cycle;Signal;HPM_P1;HPM_P2
2024/01/13 00:01:28;;;;;;;16.50;9.18;;;;;;;-4.70;64.82;95148.69;5114567;28;20374;-64
2024/01/13 00:03:54;;;;;;;14.20;8.00;;;;;;;-4.63;64.88;95156.13;5112999;28;20157;-64
2024/01/13 00:06:19;;;;;;;12.55;8.32;;;;;;;-4.63;64.12;95150.22;5122714;27;20031;-64
2024/01/13 00:08:44;;;;;;;9.90;6.05;;;;;;;-4.64;64.32;95149.38;5113386;28;20550;-65
2024/01/13 00:11:10;;;;;;;12.00;7.40;;;;;;;-4.77;64.27;95146.22;5114110;27;20024;-65
2024/01/13 00:13:35;;;;;;;10.55;6.65;;;;;;;-4.67;64.11;95134.25;5112580;27;20028;-64
2024/01/13 00:16:00;;;;;;;14.77;7.50;;;;;;;-4.86;64.38;95140.50;5112503;27;20081;-64
2024/01/13 00:18:26;;;;;;;15.80;7.28;;;;;;;-4.53;64.06;95134.81;5113734;28;20092;-64
2024/01/13 00:20:51;;;;;;;12.52;7.13;;;;;;;-4.66;63.81;95128.28;5113359;28;20027;-64
2024/01/13 00:23:17;;;;;;;14.25;7.20;;;;;;;-4.70;63.11;95126.69;5117225;27;20504;-64
2024/01/13 00:25:42;;;;;;;14.15;6.63;;;;;;;-4.63;63.17;95128.22;5119360;27;20401;-65
2024/01/13 00:28:07;;;;;;;12.77;7.20;;;;;;;-4.80;63.46;95128.53;5112352;28;20032;-65
2024/01/13 00:30:33;;;;;;;13.65;7.47;;;;;;;-4.81;63.66;95143.81;5112302;28;20499;-65
2024/01/13 00:32:58;;;;;;;13.30;7.18;;;;;;;-4.75;63.69;95128.47;5123317;27;20034;-65
2024/01/13 00:35:24;;;;;;;11.88;7.00;;;;;;;-4.62;62.46;95136.69;5132701;27;20075;-65
2024/01/13 00:37:49;;;;;;;12.93;6.90;;;;;;;-4.74;62.48;95115.75;5134180;27;20031;-65
2024/01/13 00:40:15;;;;;;;13.63;7.32;;;;;;;-4.67;62.94;95136.78;5134143;27;20488;-66
2024/01/13 00:42:43;;;;;;;10.70;5.80;;;;;;;-4.75;62.29;95129.31;5128102;27;20035;-65
2024/01/13 00:45:09;;;;;;;13.50;7.43;;;;;;;-5.24;62.34;95091.31;5112123;28;20080;-65
2024/01/13 00:47:34;;;;;;;9.65;6.25;;;;;;;-4.80;62.56;95115.03;5112400;28;20040;-65
2024/01/13 00:49:59;;;;;;;8.70;4.85;;;;;;;-4.78;61.90;95138.66;5094682;27;20038;-66
2024/01/13 00:52:26;;;;;;;12.63;6.47;;;;;;;-4.65;62.07;95135.06;5115587;27;20565;-66
2024/01/13 00:54:52;;;;;;;11.90;6.20;;;;;;;-4.76;62.28;95127.63;5132610;27;20027;-65
2024/01/13 00:57:17;;;;;;;11.93;6.60;;;;;;;-4.71;62.43;95132.59;5115378;27;20038;-67
2024/01/13 00:59:43;;;;;;;12.23;6.28;;;;;;;-4.76;62.23;95134.41;5123964;27;20488;-66
2024/01/13 01:02:09;;;;;;;12.10;7.30;;;;;;;-4.59;62.42;95129.84;5131296;27;20023;-65
2024/01/13 01:04:34;;;;;;;9.55;6.00;;;;;;;-4.61;61.86;95126.50;5113095;28;20031;-66
2024/01/13 01:07:00;;;;;;;11.57;6.95;;;;;;;-4.53;62.48;95133.97;5109311;28;20063;-66
2024/01/13 01:09:25;;;;;;;11.07;6.05;;;;;;;-4.41;62.20;95127.81;5114762;27;20482;-67
2024/01/13 01:11:50;;;;;;;14.25;7.78;;;;;;;-4.44;61.92;95122.81;5110614;28;20028;-67
2024/01/13 01:14:16;;;;;;;13.27;7.70;;;;;;;-4.53;61.85;95128.91;5090469;28;20035;-67
2024/01/13 01:16:41;;;;;;;12.00;6.93;;;;;;;-4.68;62.09;95093.69;5104828;28;20024;-67
2024/01/13 01:19:07;;;;;;;13.27;7.00;;;;;;;-4.76;62.35;95111.59;5110595;27;20421;-67
2024/01/13 01:21:32;;;;;;;12.70;6.90;;;;;;;-4.62;62.57;95103.72;5112383;27;20086;-67
2024/01/13 01:23:57;;;;;;;13.05;7.45;;;;;;;-4.59;62.38;95083.38;5112004;28;20088;-67
2024/01/13 01:26:23;;;;;;;12.52;7.18;;;;;;;-4.64;62.07;95090.25;5113475;27;20027;-67
2024/01/13 01:28:48;;;;;;;13.45;7.18;;;;;;;-4.69;62.77;95081.88;5115558;27;20040;-67
2024/01/13 01:31:14;;;;;;;17.50;8.45;;;;;;;-4.71;62.61;95094.56;5073443;28;20028;-67
2024/01/13 01:33:39;;;;;;;14.35;7.97;;;;;;;-4.59;62.51;95088.47;5103431;28;20104;-66
2024/01/13 01:36:05;;;;;;;12.68;8.07;;;;;;;-4.69;63.10;95081.88;5115312;27;20047;-66
2024/01/13 01:38:30;;;;;;;15.60;7.70;;;;;;;-4.60;63.25;95076.63;5110083;28;20038;-66
2024/01/13 01:40:56;;;;;;;20.52;8.25;;;;;;;-4.91;64.41;95081.44;5110680;28;20473;-66
2024/01/13 01:43:21;;;;;;;13.32;7.28;;;;;;;-5.10;64.44;95081.78;5111676;28;20035;-65
2024/01/13 01:45:50;;;;;;;12.57;7.55;;;;;;;-4.84;64.07;95083.03;5123152;27;20027;-66
2024/01/13 01:48:16;;;;;;;9.18;5.93;;;;;;;-4.74;64.24;95074.34;5110249;27;20036;-65
2024/01/13 01:50:41;;;;;;;14.73;7.93;;;;;;;-4.72;64.04;95077.72;5092142;28;20536;-66
2024/01/13 01:53:07;;;;;;;16.00;7.78;;;;;;;-4.70;63.75;95092.91;5119850;27;20027;-65
2024/01/13 01:55:32;;;;;;;11.95;6.97;;;;;;;-4.77;63.26;95095.53;5129342;27;20030;-65
2024/01/13 01:57:58;;;;;;;13.25;7.22;;;;;;;-4.56;63.02;95098.53;5112518;27;20524;-65
2024/01/13 02:00:24;;;;;;;12.02;7.10;;;;;;;-4.46;63.17;95097.47;5075188;28;20115;-66
2024/01/13 02:02:49;;;;;;;14.90;7.88;;;;;;;-4.74;63.99;95092.09;5110489;27;20482;-65
2024/01/13 02:05:15;;;;;;;13.65;6.93;;;;;;;-4.75;63.02;95096.34;5089709;28;20032;-66
2024/01/13 02:07:40;;;;;;;11.88;7.22;;;;;;;-4.70;62.74;95090.38;5098857;28;20455;-66
2024/01/13 02:10:06;;;;;;;11.45;5.88;;;;;;;-4.68;62.67;95089.47;5110017;28;20024;-65
2024/01/13 02:12:32;;;;;;;16.63;8.00;;;;;;;-4.79;62.79;95079.53;5112678;27;20111;-66
2024/01/13 02:14:57;;;;;;;12.90;7.10;;;;;;;-4.62;62.55;95084.28;5109875;28;20031;-65
2024/01/13 02:17:22;;;;;;;14.18;7.10;;;;;;;-4.65;62.25;95086.00;5109925;28;20016;-65
2024/01/13 02:19:48;;;;;;;14.80;8.00;;;;;;;-4.57;62.38;95090.09;5110835;28;20039;-65
2024/01/13 02:22:13;;;;;;;12.30;7.20;;;;;;;-4.45;61.89;95090.72;5122734;27;20307;-65
2024/01/13 02:24:39;;;;;;;13.52;7.15;;;;;;;-4.57;62.91;95092.63;5109720;28;20031;-65
2024/01/13 02:27:04;;;;;;;13.73;7.40;;;;;;;-4.56;62.66;95079.06;5109933;28;20099;-65
2024/01/13 02:29:29;;;;;;;15.77;7.70;;;;;;;-4.53;62.22;95076.47;5109179;28;20032;-65
2024/01/13 02:31:55;;;;;;;14.43;7.05;;;;;;;-4.62;62.36;95056.38;5131967;27;20491;-65
2024/01/13 02:34:20;;;;;;;15.70;7.65;;;;;;;-4.63;62.62;95067.38;5112357;27;20038;-65
2024/01/13 02:36:45;;;;;;;15.20;7.78;;;;;;;-4.56;62.67;95068.09;5109724;28;20070;-65
2024/01/13 02:39:11;;;;;;;13.35;6.65;;;;;;;-4.49;62.05;95067.09;5114976;28;20454;-65
2024/01/13 02:41:36;;;;;;;13.57;7.55;;;;;;;-4.52;62.64;95064.63;5131862;27;20035;-66
2024/01/13 02:44:02;;;;;;;13.45;6.47;;;;;;;-4.54;62.45;95067.22;5120018;27;20023;-66
2024/01/13 02:46:27;;;;;;;13.52;6.88;;;;;;;-4.47;61.60;95059.47;5111280;28;20023;-66
2024/01/13 02:48:54;;;;;;;12.80;6.78;;;;;;;-4.45;61.69;95060.28;5093986;28;20092;-66
2024/01/13 02:51:19;;;;;;;11.32;6.60;;;;;;;-4.41;61.46;95056.81;5093572;28;20122;-66
2024/01/13 02:53:45;;;;;;;14.88;8.73;;;;;;;-4.63;62.02;95066.53;5113272;28;20038;-66
2024/01/13 02:56:10;;;;;;;15.50;7.72;;;;;;;-4.66;62.28;95061.53;5113479;28;20031;-66
2024/01/13 02:58:36;;;;;;;12.00;6.75;;;;;;;-4.32;62.25;95061.66;5099365;28;20032;-66
2024/01/13 03:01:06;;;;;;;14.77;7.32;;;;;;;-4.38;62.43;95062.63;5111285;28;20023;-66
2024/01/13 03:03:33;;;;;;;11.20;6.63;;;;;;;-4.21;61.30;95069.88;5109890;28;20028;-66
2024/01/13 03:05:58;;;;;;;16.65;7.82;;;;;;;-4.41;61.79;95067.78;5108612;28;20023;-67
2024/01/13 03:08:24;;;;;;;15.75;8.02;;;;;;;-4.36;61.45;95067.69;5130007;28;20563;-66
2024/01/13 03:10:50;;;;;;;14.95;7.63;;;;;;;-4.72;62.83;95070.09;5110738;28;20023;-66
2024/01/13 03:13:15;;;;;;;13.10;8.23;;;;;;;-4.58;62.91;95085.88;5110158;28;20478;-66
2024/01/13 03:15:40;;;;;;;19.17;9.27;;;;;;;-4.77;63.52;95080.31;5114601;28;20476;-66
2024/01/13 03:18:06;;;;;;;17.08;8.07;;;;;;;-5.02;64.24;95097.69;5131523;27;20031;-66
2024/01/13 03:20:31;;;;;;;18.83;8.52;;;;;;;-5.06;64.20;95083.41;5116287;28;20031;-66
2024/01/13 03:22:57;;;;;;;12.98;7.70;;;;;;;-5.02;65.02;95106.97;5109755;28;20032;-66
2024/01/13 03:25:22;;;;;;;13.52;7.10;;;;;;;-4.80;64.36;95104.91;5119086;28;20396;-66
2024/01/13 03:27:47;;;;;;;15.52;8.48;;;;;;;-4.97;64.33;95106.03;5112974;28;20031;-66
2024/01/13 03:30:13;;;;;;;13.45;7.88;;;;;;;-4.82;64.55;95111.69;5113765;27;20019;-66
2024/01/13 03:32:39;;;;;;;16.25;8.65;;;;;;;-4.70;64.03;95103.88;5109639;28;20524;-67
2024/01/13 03:35:05;;;;;;;14.25;7.90;;;;;;;-4.79;64.26;95106.56;5119437;28;20059;-67
2024/01/13 03:37:30;;;;;;;14.15;7.35;;;;;;;-4.72;64.95;95108.13;5092358;28;20046;-67
2024/01/13 03:39:56;;;;;;;12.85;7.95;;;;;;;-4.85;64.59;95106.69;5110531;28;20028;-67
2024/01/13 03:42:21;;;;;;;18.92;10.43;;;;;;;-4.74;64.93;95110.69;5111944;27;20485;-67
2024/01/13 03:44:47;;;;;;;18.23;11.18;;;;;;;-4.70;65.48;95115.72;5134776;27;20019;-67
2024/01/13 03:47:12;;;;;;;18.33;9.85;;;;;;;-4.76;65.57;95081.19;5112849;28;20031;-67
2024/01/13 03:49:39;;;;;;;19.00;10.07;;;;;;;-4.49;65.39;95095.81;5114348;28;20020;-67
2024/01/13 03:52:04;;;;;;;17.30;9.98;;;;;;;-4.62;65.85;95093.59;5102023;27;20053;-67
2024/01/13 03:54:30;;;;;;;13.93;8.45;;;;;;;-4.55;65.69;95100.19;5116685;27;20480;-66
2024/01/13 03:56:55;;;;;;;14.85;8.60;;;;;;;-4.63;65.69;95102.03;5119480;27;20019;-66
2024/01/13 03:59:21;;;;;;;17.50;9.00;;;;;;;-4.55;65.55;95100.19;5113195;28;20035;-66
2024/01/13 04:01:46;;;;;;;13.68;8.18;;;;;;;-4.56;65.21;95093.47;5125305;27;20497;-67
2024/01/13 04:04:11;;;;;;;13.77;8.70;;;;;;;-4.53;64.98;95098.47;5121294;27;20032;-67
2024/01/13 04:06:40;;;;;;;16.48;8.82;;;;;;;-4.76;65.22;95101.47;5114317;28;20485;-66
2024/01/13 04:09:06;;;;;;;15.07;8.80;;;;;;;-4.72;65.02;95105.59;5113771;28;20052;-67
2024/01/13 04:11:31;;;;;;;16.33;8.60;;;;;;;-4.77;65.17;95087.09;5121231;27;20129;-67
2024/01/13 04:13:57;;;;;;;16.77;8.82;;;;;;;-4.64;65.14;95098.69;5095847;28;20028;-67
2024/01/13 04:16:22;;;;;;;17.05;9.40;;;;;;;-4.59;64.76;95093.53;5113654;28;20068;-65
2024/01/13 04:18:47;;;;;;;14.07;7.40;;;;;;;-4.53;64.69;95099.31;5115491;27;20412;-65
2024/01/13 04:21:13;;;;;;;16.73;8.90;;;;;;;-4.76;65.00;95097.22;5132115;27;20031;-66
2024/01/13 04:23:38;;;;;;;16.42;8.65;;;;;;;-4.63;64.10;95095.25;5112676;28;20028;-65
2024/01/13 04:26:04;;;;;;;13.68;7.90;;;;;;;-4.57;64.06;95105.31;5114077;28;20032;-66
2024/01/13 04:28:29;;;;;;;18.77;9.68;;;;;;;-4.61;64.38;95113.00;5118713;27;20096;-65
2024/01/13 04:30:54;;;;;;;16.92;9.43;;;;;;;-4.61;64.24;95110.47;5131398;27;20396;-65
2024/01/13 04:33:20;;;;;;;18.48;9.55;;;;;;;-4.56;63.61;95132.34;5113537;27;20039;-65
2024/01/13 04:35:45;;;;;;;18.52;9.30;;;;;;;-4.62;63.34;95135.00;5111257;27;20422;-65
2024/01/13 04:38:10;;;;;;;16.33;8.82;;;;;;;-4.76;64.13;95122.56;5111963;28;20034;-65
2024/01/13 04:40:37;;;;;;;15.43;8.52;;;;;;;-4.59;64.47;95123.97;5095329;28;20028;-65
2024/01/13 04:43:05;;;;;;;14.90;8.68;;;;;;;-4.85;64.94;95126.97;5111926;28;20390;-65
2024/01/13 04:45:30;;;;;;;18.50;10.68;;;;;;;-5.14;65.29;95130.00;5112875;28;20463;-65
2024/01/13 04:47:57;;;;;;;18.67;10.68;;;;;;;-5.02;64.24;95110.34;5112907;27;20027;-65
2024/01/13 04:50:22;;;;;;;19.75;10.10;;;;;;;-4.92;64.33;95120.34;5095142;28;20067;-65
2024/01/13 04:52:48;;;;;;;19.17;9.73;;;;;;;-4.80;64.07;95130.25;5101919;27;20031;-65
2024/01/13 04:55:13;;;;;;;17.25;8.50;;;;;;;-4.72;63.53;95128.41;5133799;27;20087;-65
2024/01/13 04:57:39;;;;;;;18.77;9.45;;;;;;;-4.90;64.20;95132.13;5133574;27;20527;-65
2024/01/13 05:00:05;;;;;;;14.80;8.80;;;;;;;-5.05;63.26;95115.47;5133675;27;20027;-65
2024/01/13 05:02:30;;;;;;;18.73;9.90;;;;;;;-4.80;62.11;95126.00;5115193;27;20454;-66
2024/01/13 05:04:56;;;;;;;14.15;7.93;;;;;;;-4.87;62.40;95114.31;5123904;27;20484;-65
2024/01/13 05:07:21;;;;;;;15.02;9.23;;;;;;;-4.91;62.26;95119.47;5087653;28;20054;-66
2024/01/13 05:09:49;;;;;;;20.52;10.48;;;;;;;-5.04;62.02;95129.84;5105794;27;20023;-65
2024/01/13 05:12:14;;;;;;;18.70;9.50;;;;;;;-5.14;62.09;95123.25;5107245;28;20039;-65
2024/01/13 05:14:40;;;;;;;25.58;10.60;;;;;;;-5.22;61.96;95130.13;5106355;28;20093;-65
2024/01/13 05:17:05;;;;;;;15.80;7.60;;;;;;;-5.29;62.48;95121.81;5098789;28;20055;-66
2024/01/13 05:19:31;;;;;;;12.20;5.70;;;;;;;-5.17;62.02;95123.31;5095327;28;20411;-65
2024/01/13 05:21:57;;;;;;;17.45;8.88;;;;;;;-5.25;62.60;95118.34;5106684;28;20038;-66
2024/01/13 05:24:22;;;;;;;16.52;8.05;;;;;;;-5.24;61.79;95104.84;5098464;27;20036;-67
2024/01/13 05:26:48;;;;;;;11.90;6.50;;;;;;;-5.43;62.50;95089.13;5103337;28;20028;-65
2024/01/13 05:29:13;;;;;;;18.20;8.48;;;;;;;-5.20;62.31;95106.44;5080324;28;20039;-66
2024/01/13 05:31:38;;;;;;;17.77;9.07;;;;;;;-5.13;61.58;95089.44;5100863;28;20032;-66
2024/01/13 05:34:04;;;;;;;15.25;9.10;;;;;;;-5.18;61.15;95076.88;5088605;28;20501;-65
2024/01/13 05:36:29;;;;;;;14.82;8.95;;;;;;;-5.26;62.09;95095.59;5101805;28;20039;-66
2024/01/13 05:38:55;;;;;;;21.85;11.63;;;;;;;-5.28;62.06;95084.66;5108146;27;20038;-65
2024/01/13 05:41:20;;;;;;;19.20;12.23;;;;;;;-5.11;61.82;95102.91;5092071;28;20027;-65
2024/01/13 05:43:48;;;;;;;15.52;11.10;;;;;;;-5.15;62.48;95093.72;5103991;28;20560;-66
2024/01/13 05:46:14;;;;;;;13.23;7.10;;;;;;;-5.23;61.96;95085.41;5098842;28;20417;-67
2024/01/13 05:48:39;;;;;;;11.85;7.22;;;;;;;-5.33;62.24;95084.72;5092603;28;20035;-66
2024/01/13 05:51:05;;;;;;;10.85;7.25;;;;;;;-5.20;62.30;95105.63;5105056;27;20039;-67
2024/01/13 05:53:30;;;;;;;33.30;23.45;;;;;;;-5.24;62.39;95111.59;5110620;28;20051;-66
2024/01/13 05:55:56;;;;;;;16.30;11.15;;;;;;;-5.16;62.57;95114.81;5101322;27;20486;-67
2024/01/13 05:58:21;;;;;;;13.15;7.63;;;;;;;-5.15;62.47;95113.97;5108136;27;20489;-67
2024/01/13 06:00:46;;;;;;;13.38;8.13;;;;;;;-5.53;63.39;95096.88;5095806;28;20023;-67
2024/01/13 06:03:12;;;;;;;15.80;7.53;;;;;;;-5.54;63.75;95100.25;5110307;27;20036;-66
2024/01/13 06:05:40;;;;;;;12.75;6.43;;;;;;;-5.41;63.79;95110.16;5106058;28;20081;-68
2024/01/13 06:08:05;;;;;;;11.48;6.28;;;;;;;-5.44;63.23;95111.91;5108600;28;20035;-66
2024/01/13 06:10:31;;;;;;;13.15;7.28;;;;;;;-5.50;63.71;95119.63;5091933;28;20076;-66
2024/01/13 06:12:56;;;;;;;12.82;7.32;;;;;;;-5.60;63.82;95111.31;5097515;28;20023;-67
2024/01/13 06:15:23;;;;;;;13.80;6.93;;;;;;;-5.67;63.14;95115.66;5080202;28;20024;-65
2024/01/13 06:17:48;;;;;;;11.75;6.72;;;;;;;-5.81;64.14;95106.59;5091418;28;20027;-67
2024/01/13 06:20:14;;;;;;;18.58;8.30;;;;;;;-5.92;65.38;95112.66;5082635;27;20087;-66
2024/01/13 06:22:39;;;;;;;16.35;8.15;;;;;;;-5.81;65.21;95107.44;5110162;27;20328;-66
2024/01/13 06:25:05;;;;;;;14.30;8.30;;;;;;;-5.78;64.80;95114.16;5090853;28;20032;-67
2024/01/13 06:27:30;;;;;;;15.82;9.30;;;;;;;-5.65;64.39;95113.09;5109442;28;20028;-67
2024/01/13 06:29:56;;;;;;;18.05;9.45;;;;;;;-5.93;64.86;95108.47;5077616;27;20035;-66
2024/01/13 06:32:21;;;;;;;15.63;8.32;;;;;;;-5.82;64.45;95130.22;5110409;28;20310;-66
2024/01/13 06:34:47;;;;;;;17.73;9.43;;;;;;;-5.72;64.76;95116.59;5093726;27;20019;-66
2024/01/13 06:37:12;;;;;;;12.48;7.53;;;;;;;-5.68;64.34;95108.94;5112910;27;20043;-66
2024/01/13 06:39:37;;;;;;;32.33;16.58;;;;;;;-5.62;64.50;95115.59;5111057;28;20031;-66
2024/01/13 06:42:06;;;;;;;28.15;17.10;;;;;;;-5.71;64.98;95113.19;5102470;27;20410;-66
2024/01/13 06:44:33;;;;;;;17.15;10.50;;;;;;;-5.62;64.80;95111.34;5090707;28;20032;-66
2024/01/13 06:46:58;;;;;;;13.00;8.30;;;;;;;-5.47;64.68;95107.75;5119103;28;20420;-66
2024/01/13 06:49:24;;;;;;;20.88;12.35;;;;;;;-5.36;63.93;95112.63;5113043;28;20034;-67
2024/01/13 06:51:49;;;;;;;13.20;8.57;;;;;;;-5.41;64.27;95117.75;5114087;27;20486;-66
2024/01/13 06:54:14;;;;;;;17.70;9.48;;;;;;;-5.50;64.82;95125.50;5110483;28;20554;-66
2024/01/13 06:56:41;;;;;;;17.80;10.13;;;;;;;-5.35;64.22;95132.03;5103606;28;20030;-67
2024/01/13 06:59:07;;;;;;;17.50;10.13;;;;;;;-5.37;63.97;95138.84;5105816;28;20168;-66
2024/01/13 07:01:33;;;;;;;25.20;12.18;;;;;;;-5.28;63.54;95137.84;5108133;28;20028;-66
2024/01/13 07:03:58;;;;;;;20.25;10.68;;;;;;;-5.14;63.84;95135.91;5108203;28;20027;-65
2024/01/13 07:06:24;;;;;;;16.23;8.93;;;;;;;-5.16;63.40;95138.47;5105899;28;20035;-64
2024/01/13 07:08:49;;;;;;;20.23;11.15;;;;;;;-5.10;63.51;95139.22;5090630;28;20044;-63
2024/01/13 07:11:15;;;;;;;19.13;10.10;;;;;;;-5.02;63.49;95122.19;5108797;28;20027;-64
2024/01/13 07:13:43;;;;;;;16.25;9.73;;;;;;;-5.11;63.61;95138.41;5095947;28;20055;-65
2024/01/13 07:16:10;;;;;;;40.38;20.27;;;;;;;-5.09;63.32;95149.34;5087618;28;20043;-64
2024/01/13 07:18:35;;;;;;;28.33;13.40;;;;;;;-5.08;62.71;95140.03;5099979;28;20493;-65
2024/01/13 07:21:00;;;;;;;21.73;10.32;;;;;;;-4.99;63.09;95150.00;5105023;28;20032;-65
2024/01/13 07:23:26;;;;;;;18.63;10.07;;;;;;;-5.08;62.70;95140.03;5092661;28;20036;-65
2024/01/13 07:25:51;;;;;;;12.55;8.07;;;;;;;-4.92;62.71;95140.63;5105066;28;20032;-66
2024/01/13 07:28:17;;;;;;;16.35;9.75;;;;;;;-4.93;62.95;95155.00;5111796;28;20023;-66
2024/01/13 07:30:42;;;;;;;21.50;11.80;;;;;;;-5.39;64.28;95150.66;5092874;28;20039;-66
2024/01/13 07:33:08;;;;;;;13.82;8.23;;;;;;;-5.27;64.76;95157.22;5110243;28;20512;-65
2024/01/13 07:35:35;;;;;;;13.63;7.10;;;;;;;-5.70;64.53;95102.22;5111807;28;20044;-66
2024/01/13 07:38:01;;;;;;;20.15;10.10;;;;;;;-5.18;64.77;95162.19;5114851;27;20038;-66
2024/01/13 07:40:26;;;;;;;16.67;9.32;;;;;;;-5.34;65.20;95165.81;5116961;27;20015;-66
2024/01/13 07:42:52;;;;;;;15.07;8.27;;;;;;;-5.56;64.94;95102.84;5093022;27;20095;-66
2024/01/13 07:45:17;;;;;;;25.50;12.70;;;;;;;-5.07;64.95;95147.63;5130099;27;20163;-66
2024/01/13 07:47:43;;;;;;;16.48;9.75;;;;;;;-5.18;65.36;95149.50;5092219;28;20031;-66
2024/01/13 07:50:09;;;;;;;20.45;11.75;;;;;;;-4.87;64.97;95159.13;5118478;27;20088;-66
2024/01/13 07:52:34;;;;;;;13.25;7.55;;;;;;;-4.92;64.58;95166.78;5133421;27;20031;-66
2024/01/13 07:54:59;;;;;;;13.85;8.82;;;;;;;-4.89;64.24;95166.75;5133473;27;20039;-66
2024/01/13 07:57:26;;;;;;;15.20;8.10;;;;;;;-4.85;64.38;95167.50;5123648;27;20508;-65
2024/01/13 07:59:51;;;;;;;35.45;21.58;;;;;;;-4.79;64.77;95158.13;5102659;28;20416;-65
2024/01/13 08:02:17;;;;;;;23.88;13.20;;;;;;;-4.81;65.18;95164.06;5112356;28;20031;-67
2024/01/13 08:04:43;;;;;;;19.40;11.07;;;;;;;-4.71;64.71;95147.81;5106090;28;20509;-67
2024/01/13 08:07:09;;;;;;;23.40;11.55;;;;;;;-4.68;64.38;95162.13;5097979;27;20032;-66
2024/01/13 08:09:34;;;;;;;22.33;11.95;;;;;;;-4.54;64.56;95160.19;5105198;27;20031;-66
2024/01/13 08:12:00;;;;;;;30.27;16.67;;;;;;;-4.41;64.05;95154.00;5114532;27;20024;-67
2024/01/13 08:14:25;;;;;;;35.20;19.30;;;;;;;-4.32;63.28;95150.47;5104555;28;20024;-66
2024/01/13 08:16:50;;;;;;;14.20;9.27;;;;;;;-4.53;63.35;95150.03;5112860;28;20032;-67
2024/01/13 08:19:16;;;;;;;23.15;11.63;;;;;;;-4.34;63.55;95154.75;5087991;27;20575;-66
2024/01/13 08:21:41;;;;;;;16.40;10.23;;;;;;;-4.58;63.04;95141.66;5104388;27;20032;-65
2024/01/13 08:24:08;;;;;;;20.70;10.75;;;;;;;-4.45;62.73;95154.97;5092131;27;20519;-65
2024/01/13 08:26:35;;;;;;;24.08;14.20;;;;;;;-4.06;62.19;95158.41;5079464;28;20196;-65
2024/01/13 08:29:01;;;;;;;17.42;9.48;;;;;;;-4.25;61.73;95152.03;5109203;27;20032;-65
2024/01/13 08:31:26;;;;;;;15.82;8.50;;;;;;;-3.73;61.38;95152.63;5109761;27;20055;-66
2024/01/13 08:33:52;;;;;;;22.35;12.90;;;;;;;-3.60;60.44;95154.03;5091768;28;20426;-66
2024/01/13 08:36:17;;;;;;;19.65;10.25;;;;;;;-3.60;60.57;95143.88;5080253;28;20048;-66
2024/01/13 08:38:44;;;;;;;14.95;7.95;;;;;;;-3.60;60.27;95144.69;5091703;28;20035;-65
2024/01/13 08:41:10;;;;;;;12.80;6.63;;;;;;;-3.62;59.28;95140.53;5095171;28;20058;-66
2024/01/13 08:43:36;;;;;;;16.65;9.63;;;;;;;-3.37;59.42;95138.28;5091783;28;20103;-65
2024/01/13 08:46:01;;;;;;;27.88;17.65;;;;;;;-3.17;58.41;95131.00;5105636;28;20034;-66
2024/01/13 08:48:27;;;;;;;21.60;10.35;;;;;;;-3.12;58.19;95137.66;5082645;28;20490;-66
2024/01/13 08:50:53;;;;;;;23.70;14.68;;;;;;;-3.00;57.58;95135.66;5105219;28;20028;-64
2024/01/13 08:53:18;;;;;;;21.00;11.85;;;;;;;-2.93;57.42;95137.16;5078179;28;20110;-65
2024/01/13 08:55:43;;;;;;;26.45;12.95;;;;;;;-2.86;56.99;95122.59;5094673;28;20019;-66
2024/01/13 08:58:09;;;;;;;14.85;10.00;;;;;;;-2.80;56.58;95126.69;5107874;28;20024;-65
2024/01/13 09:00:34;;;;;;;19.83;11.73;;;;;;;-2.66;55.73;95116.16;5117986;27;20026;-65
2024/01/13 09:03:00;;;;;;;23.58;14.77;;;;;;;-2.76;55.02;95113.88;5106386;28;20819;-66
2024/01/13 09:05:26;;;;;;;20.08;11.38;;;;;;;-2.60;55.68;95100.72;5114346;27;20046;-65
2024/01/13 09:07:52;;;;;;;23.60;12.55;;;;;;;-2.54;55.87;95093.75;5111454;28;20039;-65
2024/01/13 09:10:17;;;;;;;22.55;12.27;;;;;;;-2.42;55.31;95091.75;5101337;28;20027;-65
2024/01/13 09:12:42;;;;;;;26.77;15.45;;;;;;;-2.18;54.69;95090.22;5107627;28;20493;-65
2024/01/13 09:15:09;;;;;;;21.05;10.13;;;;;;;-2.06;55.03;95092.44;5102200;28;20456;-65
2024/01/13 09:17:36;;;;;;;42.05;21.35;;;;;;;-1.92;55.00;95090.31;5104240;28;20123;-65
2024/01/13 09:20:01;;;;;;;31.30;18.55;;;;;;;-1.92;54.00;95087.75;5111028;27;20054;-65
2024/01/13 09:22:27;;;;;;;50.55;24.05;;;;;;;-2.00;54.06;95079.53;5099303;28;20494;-65
2024/01/13 09:24:52;;;;;;;35.10;18.70;;;;;;;-1.90;54.74;95078.34;5097316;27;20031;-65
2024/01/13 09:27:18;;;;;;;9.40;5.38;;;;;;;-1.97;53.84;95087.06;5108099;27;20027;-66
2024/01/13 09:29:46;;;;;;;13.30;6.90;;;;;;;-1.81;53.91;95057.72;5089133;28;20459;-64
2024/01/13 09:32:15;;;;;;;17.38;10.75;;;;;;;-1.66;53.51;95069.13;5112224;28;20401;-64
2024/01/13 09:34:40;;;;;;;15.27;9.20;;;;;;;-1.62;53.41;95064.75;5105863;27;20050;-65
2024/01/13 09:37:05;;;;;;;20.02;12.75;;;;;;;-1.42;53.08;95057.34;5096626;28;20501;-65
2024/01/13 09:39:31;;;;;;;10.05;7.20;;;;;;;-1.51;53.02;95060.16;5110993;28;20028;-64
2024/01/13 09:41:58;;;;;;;11.77;7.40;;;;;;;-1.82;52.97;95050.09;5112533;28;20023;-63
2024/01/13 09:44:25;;;;;;;11.23;7.45;;;;;;;-1.58;54.12;95056.16;5112321;28;20058;-64
2024/01/13 09:46:52;;;;;;;14.27;7.57;;;;;;;-1.59;53.40;95060.44;5111338;28;20067;-64
2024/01/13 09:49:18;;;;;;;16.83;9.30;;;;;;;-1.48;52.92;95038.84;5086299;28;20036;-64
2024/01/13 09:51:47;;;;;;;11.38;7.85;;;;;;;-1.23;52.41;95037.16;5074075;28;20035;-64
2024/01/13 09:54:23;;;;;;;12.35;7.97;;;;;;;-1.29;52.14;95041.63;5090447;28;20028;-64
2024/01/13 09:56:49;;;;;;;13.05;8.88;;;;;;;-1.15;51.58;95042.81;5092194;28;20035;-64
2024/01/13 09:59:15;;;;;;;19.67;12.85;;;;;;;-1.09;52.13;95053.72;5129222;27;20046;-65
2024/01/13 10:01:40;;;;;;;9.43;7.00;;;;;;;-1.19;51.50;95038.72;5131470;27;20106;-64
2024/01/13 10:04:09;;;;;;;10.23;6.53;;;;;;;-1.46;51.11;95032.00;5129795;27;20397;-64
2024/01/13 10:06:35;;;;;;;10.85;6.60;;;;;;;-1.56;51.39;95021.28;5129151;27;20027;-64
2024/01/13 10:09:01;;;;;;;13.75;8.05;;;;;;;-1.46;52.48;95021.78;5080275;28;20409;-64
2024/01/13 10:11:27;;;;;;;12.68;7.30;;;;;;;-1.67;53.44;95015.66;5074930;28;20028;-64
2024/01/13 10:14:06;;;;;;;11.13;6.90;;;;;;;-1.85;53.20;95012.81;5108739;28;20027;-64
2024/01/13 10:16:32;;;;;;;12.10;7.45;;;;;;;-1.58;53.28;95000.09;5092008;28;20027;-64
2024/01/13 10:19:05;;;;;;;11.07;6.50;;;;;;;-1.43;52.81;94994.47;5108572;28;20024;-65
2024/01/13 10:21:31;;;;;;;11.00;6.53;;;;;;;-1.38;52.65;94979.06;5111829;28;20145;-64
2024/01/13 10:23:57;;;;;;;11.02;7.20;;;;;;;-1.26;52.34;94988.00;5111445;28;20024;-64
2024/01/13 10:26:26;;;;;;;9.77;6.88;;;;;;;-1.18;52.31;94975.81;5093691;28;20516;-64
2024/01/13 10:28:51;;;;;;;10.48;5.95;;;;;;;-1.62;52.24;94983.22;5111283;28;20028;-64
2024/01/13 10:31:20;;;;;;;10.43;6.63;;;;;;;-1.60;53.28;94972.09;5110403;28;20019;-65
2024/01/13 10:33:49;;;;;;;11.68;7.88;;;;;;;-1.37;52.84;94966.25;5110142;28;20020;-64
2024/01/13 10:36:15;;;;;;;12.40;7.00;;;;;;;-1.19;52.77;94969.06;5111454;28;20052;-64
2024/01/13 10:38:42;;;;;;;11.45;7.18;;;;;;;-1.76;53.26;94970.94;5110090;28;20122;-64
2024/01/13 10:41:09;;;;;;;12.45;7.43;;;;;;;-1.66;53.51;94966.41;5110109;28;20114;-64
2024/01/13 10:43:37;;;;;;;14.18;7.95;;;;;;;-1.44;53.66;94972.44;5093753;28;20556;-65
2024/01/13 10:46:03;;;;;;;12.55;7.00;;;;;;;-1.16;52.94;94963.84;5130768;27;20087;-64
2024/01/13 10:48:41;;;;;;;14.18;8.05;;;;;;;-1.35;53.89;94972.13;5130683;28;20496;-64
2024/01/13 10:51:08;;;;;;;11.65;7.13;;;;;;;-1.32;53.44;94970.38;5106628;28;20075;-64
2024/01/13 10:53:33;;;;;;;11.93;7.32;;;;;;;-1.59;53.32;94965.28;5082625;28;20040;-68
2024/01/13 10:55:59;;;;;;;15.57;8.98;;;;;;;-1.30;53.70;94938.84;5092530;28;20043;-67
2024/01/13 10:58:24;;;;;;;14.18;7.63;;;;;;;-1.39;53.83;94962.94;5107704;28;20038;-65
2024/01/13 11:00:50;;;;;;;15.80;7.60;;;;;;;-1.62;54.14;94971.31;5107772;28;20023;-66
2024/01/13 11:03:16;;;;;;;12.55;7.15;;;;;;;-1.55;54.12;94973.69;5130539;28;20045;-67
2024/01/13 11:05:41;;;;;;;13.93;7.72;;;;;;;-1.31;54.33;94972.00;5095534;28;20024;-66
2024/01/13 11:08:07;;;;;;;11.60;6.63;;;;;;;-0.95;53.30;94964.81;5087573;28;20033;-66
2024/01/13 11:10:34;;;;;;;16.75;10.55;;;;;;;-1.10;52.89;94922.00;5097153;28;20496;-65
2024/01/13 11:13:13;;;;;;;15.05;9.68;;;;;;;-0.72;53.47;94953.78;5108919;28;20039;-66
2024/01/13 11:15:42;;;;;;;14.60;8.45;;;;;;;-1.23;54.11;94957.28;5109771;28;20027;-67
2024/01/13 11:18:07;;;;;;;16.50;8.02;;;;;;;-1.12;54.44;94960.31;5109793;28;20027;-66